Terminal Aerodrome Forecast
Issued by NWS Buffalo, NY

Home | Current Version | Previous Version | Text Only | Print | Product List | Glossary On
Versions: 1 2 3 4 5 6 7 8 9 10 11 12 13 14 15 16 17 18 19 20 21 22 23 24
000
FTUS41 KBUF 041720
TAFROC
TAF
KROC 041720Z 0418/0518 00000KT P6SM SCT050
     FM042100 34006KT P6SM FEW050
     FM050800 30004KT P6SM SCT050
     FM051100 30004KT P6SM FEW250=

USA.gov is the U.S. government's official web portal to all federal, state and local government web resources and services.